Time;durP1;ratioP1;P1;durP2;ratioP2;P2;SDS_P1;SDS_P2;PMS_P1;PMS_P2;Temp;Humidity;BMP_temperature;BMP_pressure;BME280_temperature;BME280_humidity;BME280_pressure;Samples;Min_cycle;Max_cycle;Signal;HPM_P1;HPM_P2
2021/07/09 00:00:57;;;;;;;16.70;10.95;;;19.60;82.80;;;;;;4995337;28;20055;-87
2021/07/09 00:03:24;;;;;;;13.63;10.63;;;19.60;82.60;;;;;;4995282;28;20097;-87
2021/07/09 00:05:49;;;;;;;14.07;10.98;;;19.60;82.80;;;;;;4994065;28;20051;-87
2021/07/09 00:08:15;;;;;;;12.65;10.27;;;19.60;82.90;;;;;;5009135;28;20092;-87
2021/07/09 00:10:41;;;;;;;14.73;10.60;;;19.60;83.30;;;;;;5014810;28;20545;-88
2021/07/09 00:13:06;;;;;;;13.63;10.98;;;19.50;83.30;;;;;;5013903;28;20046;-87
2021/07/09 00:15:34;;;;;;;12.75;10.75;;;19.50;83.20;;;;;;5015108;28;20054;-86
2021/07/09 00:18:01;;;;;;;13.73;10.50;;;19.40;83.50;;;;;;5014182;28;20633;-87
2021/07/09 00:20:26;;;;;;;15.25;11.18;;;19.50;83.30;;;;;;5013915;28;20125;-86
2021/07/09 00:22:52;;;;;;;15.27;10.65;;;19.40;83.30;;;;;;5014193;28;20077;-86
2021/07/09 00:25:18;;;;;;;14.23;10.70;;;19.40;83.40;;;;;;5014332;28;20046;-87
2021/07/09 00:27:47;;;;;;;13.38;10.82;;;19.40;83.60;;;;;;5013463;28;20057;-87
2021/07/09 00:30:13;;;;;;;15.00;11.35;;;19.30;83.50;;;;;;5014510;28;20054;-87
2021/07/09 00:32:39;;;;;;;14.10;10.48;;;19.30;83.60;;;;;;5014344;28;20054;-87
2021/07/09 00:35:06;;;;;;;14.55;10.98;;;19.30;83.80;;;;;;5013233;28;20390;-87
2021/07/09 00:37:32;;;;;;;14.18;11.07;;;19.20;83.90;;;;;;5013603;28;20052;-87
2021/07/09 00:39:57;;;;;;;13.52;10.55;;;19.20;83.50;;;;;;5013850;28;20049;-88
2021/07/09 00:42:23;;;;;;;15.05;10.73;;;19.20;83.60;;;;;;5013170;28;20061;-87
2021/07/09 00:44:49;;;;;;;14.82;11.45;;;19.20;83.50;;;;;;5013745;28;20050;-87
2021/07/09 00:47:14;;;;;;;15.23;10.77;;;19.20;83.50;;;;;;5014172;28;20054;-87
2021/07/09 00:49:45;;;;;;;13.07;10.38;;;19.10;83.50;;;;;;5013094;28;20100;-87
2021/07/09 00:52:19;;;;;;;13.38;10.80;;;19.10;83.80;;;;;;5013651;28;20064;-87
2021/07/09 00:54:45;;;;;;;13.23;10.13;;;19.10;83.80;;;;;;5012867;28;20050;-88
2021/07/09 00:57:13;;;;;;;15.50;10.38;;;19.00;83.50;;;;;;5014216;28;20054;-87
2021/07/09 00:59:39;;;;;;;12.48;9.75;;;19.00;83.50;;;;;;5013982;28;20132;-87
2021/07/09 01:02:05;;;;;;;11.88;9.70;;;19.00;83.80;;;;;;5012971;28;20452;-87
2021/07/09 01:04:31;;;;;;;12.23;10.52;;;19.00;83.80;;;;;;5013879;28;20188;-87
2021/07/09 01:06:57;;;;;;;12.50;10.20;;;18.90;83.80;;;;;;5013086;28;20052;-87
2021/07/09 01:09:23;;;;;;;11.52;9.52;;;18.90;84.30;;;;;;5012907;28;20417;-87
2021/07/09 01:11:52;;;;;;;11.63;9.15;;;18.90;84.20;;;;;;5013351;28;20070;-87
2021/07/09 01:14:19;;;;;;;12.63;9.73;;;18.90;84.10;;;;;;5013759;28;20081;-87
2021/07/09 01:16:46;;;;;;;11.68;9.32;;;18.80;84.00;;;;;;4992897;28;20046;-87
2021/07/09 01:19:17;;;;;;;12.05;9.43;;;18.80;83.50;;;;;;4993965;28;20056;-88
2021/07/09 01:21:44;;;;;;;12.52;9.95;;;18.80;83.80;;;;;;4993923;28;20090;-87
2021/07/09 01:24:10;;;;;;;11.90;9.52;;;18.80;84.40;;;;;;4993306;28;20042;-87
2021/07/09 01:26:37;;;;;;;12.73;9.68;;;18.80;84.40;;;;;;4994060;28;20049;-87
2021/07/09 01:29:04;;;;;;;13.32;9.52;;;18.70;84.40;;;;;;4993480;28;20126;-87
2021/07/09 01:31:31;;;;;;;10.98;9.35;;;18.70;84.40;;;;;;4993168;28;20053;-87
2021/07/09 01:33:57;;;;;;;13.18;9.88;;;18.70;84.60;;;;;;4993510;28;20449;-87
2021/07/09 01:36:23;;;;;;;11.82;9.02;;;18.70;84.50;;;;;;4993835;28;20050;-87
2021/07/09 01:38:50;;;;;;;12.73;9.98;;;18.60;84.20;;;;;;5009600;28;20050;-87
2021/07/09 01:41:16;;;;;;;13.15;9.88;;;18.60;84.50;;;;;;5011314;28;20046;-87
2021/07/09 01:43:44;;;;;;;13.30;10.45;;;18.60;84.50;;;;;;5012351;28;20050;-87
2021/07/09 01:46:09;;;;;;;13.00;9.93;;;18.50;84.70;;;;;;5011189;28;20049;-87
2021/07/09 01:48:35;;;;;;;12.43;9.88;;;18.50;84.70;;;;;;5013363;28;20057;-86
2021/07/09 01:51:01;;;;;;;12.27;9.90;;;18.50;84.50;;;;;;5012093;28;20050;-87
2021/07/09 01:53:27;;;;;;;11.38;8.77;;;18.50;84.80;;;;;;5013040;28;20476;-87
2021/07/09 01:55:53;;;;;;;12.65;9.52;;;18.50;85.00;;;;;;5013006;28;20068;-87
2021/07/09 01:58:18;;;;;;;12.27;9.38;;;18.40;85.20;;;;;;5012267;28;20127;-87
2021/07/09 02:00:45;;;;;;;10.88;8.82;;;18.40;85.20;;;;;;5013082;28;20137;-86
2021/07/09 02:03:11;;;;;;;11.48;8.68;;;18.40;85.20;;;;;;5013085;28;20056;-87
2021/07/09 02:05:37;;;;;;;11.70;8.88;;;18.40;85.50;;;;;;5011697;28;20049;-87
2021/07/09 02:08:04;;;;;;;11.00;8.30;;;18.40;85.50;;;;;;5013048;28;20073;-88
2021/07/09 02:10:34;;;;;;;10.40;8.02;;;18.40;85.60;;;;;;5013374;28;20050;-88
2021/07/09 02:13:00;;;;;;;10.90;8.23;;;18.30;85.50;;;;;;5012279;28;20085;-88
2021/07/09 02:15:30;;;;;;;11.02;8.55;;;18.30;85.50;;;;;;5013452;28;20416;-88
2021/07/09 02:17:55;;;;;;;10.98;8.10;;;18.30;85.70;;;;;;5012436;28;20405;-88
2021/07/09 02:20:24;;;;;;;10.93;8.30;;;18.30;85.70;;;;;;5012713;28;20114;-88
2021/07/09 02:22:53;;;;;;;12.32;8.20;;;18.20;85.80;;;;;;5013014;28;20125;-87
2021/07/09 02:25:18;;;;;;;10.70;8.00;;;18.20;85.50;;;;;;5013225;28;20057;-87
2021/07/09 02:27:47;;;;;;;11.20;8.65;;;18.20;85.70;;;;;;5012073;28;20058;-87
2021/07/09 02:30:18;;;;;;;10.73;7.93;;;18.10;85.70;;;;;;5012865;28;20077;-87
2021/07/09 02:32:45;;;;;;;11.45;8.88;;;18.10;85.80;;;;;;5012949;28;20054;-87
2021/07/09 02:35:13;;;;;;;14.27;10.05;;;18.10;84.90;;;;;;5012148;28;20048;-88
2021/07/09 02:37:40;;;;;;;9.82;8.27;;;18.10;84.40;;;;;;5012706;28;20048;-87
2021/07/09 02:40:12;;;;;;;12.18;8.85;;;18.00;85.10;;;;;;5012675;28;20100;-87
2021/07/09 02:42:39;;;;;;;10.80;8.07;;;18.00;84.80;;;;;;5013176;28;20045;-86
2021/07/09 02:45:07;;;;;;;11.73;8.30;;;18.00;85.10;;;;;;5012472;28;20323;-87
2021/07/09 02:47:32;;;;;;;9.88;8.20;;;17.90;85.60;;;;;;5010885;28;20141;-86
2021/07/09 02:49:58;;;;;;;11.00;8.55;;;17.90;85.80;;;;;;5012317;28;20133;-87
2021/07/09 02:52:24;;;;;;;12.32;9.30;;;17.90;86.00;;;;;;5012648;28;20101;-87
2021/07/09 02:54:49;;;;;;;13.27;9.15;;;17.80;85.80;;;;;;5011493;28;20050;-87
2021/07/09 02:57:15;;;;;;;11.85;9.50;;;17.80;86.20;;;;;;5012415;28;20417;-87
2021/07/09 02:59:41;;;;;;;11.82;9.35;;;17.80;86.20;;;;;;5014573;28;20512;-87
2021/07/09 03:02:06;;;;;;;12.23;9.05;;;17.80;85.30;;;;;;5014838;28;20049;-87
2021/07/09 03:04:32;;;;;;;12.40;9.60;;;17.80;85.20;;;;;;5015803;28;20054;-87
2021/07/09 03:06:58;;;;;;;11.80;9.20;;;17.70;85.70;;;;;;5015565;28;20054;-87
2021/07/09 03:09:23;;;;;;;12.32;10.05;;;17.70;85.70;;;;;;5015417;28;20053;-87
2021/07/09 03:11:49;;;;;;;12.75;9.55;;;17.70;86.00;;;;;;5015359;28;20390;-87
2021/07/09 03:14:14;;;;;;;11.75;9.48;;;17.70;85.80;;;;;;5015810;28;20050;-87
2021/07/09 03:16:40;;;;;;;12.50;9.52;;;17.70;85.60;;;;;;5015425;28;20077;-87
2021/07/09 03:19:07;;;;;;;12.55;10.50;;;17.60;86.30;;;;;;5015546;28;20049;-87
2021/07/09 03:21:35;;;;;;;13.23;10.70;;;17.60;86.40;;;;;;5015469;28;20501;-87
2021/07/09 03:24:01;;;;;;;13.48;10.70;;;17.60;86.60;;;;;;5014660;28;20073;-87
2021/07/09 03:26:27;;;;;;;12.10;10.30;;;17.60;86.70;;;;;;5015701;28;20060;-87
2021/07/09 03:28:57;;;;;;;13.65;10.90;;;17.50;86.80;;;;;;5015108;28;20141;-87
2021/07/09 03:31:24;;;;;;;13.50;11.30;;;17.50;86.80;;;;;;5014341;28;20417;-86
2021/07/09 03:33:50;;;;;;;13.02;10.30;;;17.50;86.90;;;;;;4995512;28;20046;-87
2021/07/09 03:36:15;;;;;;;13.65;11.13;;;17.50;86.90;;;;;;4995928;28;20394;-86
2021/07/09 03:38:41;;;;;;;14.00;11.57;;;17.50;87.00;;;;;;4995192;28;20450;-87
2021/07/09 03:41:06;;;;;;;13.55;10.95;;;17.40;86.80;;;;;;4995395;28;20078;-86
2021/07/09 03:43:32;;;;;;;13.85;10.73;;;17.40;87.00;;;;;;4994945;28;20062;-86
2021/07/09 03:45:58;;;;;;;13.90;11.02;;;17.40;86.70;;;;;;4995481;28;20057;-86
2021/07/09 03:48:24;;;;;;;13.02;10.82;;;17.40;86.80;;;;;;4995819;28;20088;-86
2021/07/09 03:50:49;;;;;;;11.70;10.30;;;17.40;86.70;;;;;;4994815;28;20043;-87
2021/07/09 03:53:15;;;;;;;12.68;10.70;;;17.30;86.60;;;;;;4994395;28;20058;-87
2021/07/09 03:55:41;;;;;;;12.93;10.90;;;17.30;86.90;;;;;;4994919;28;20050;-87
2021/07/09 03:58:06;;;;;;;11.80;10.25;;;17.30;86.80;;;;;;4994245;28;20051;-87
2021/07/09 04:00:32;;;;;;;13.75;10.98;;;17.30;86.60;;;;;;4995484;28;20058;-87
2021/07/09 04:02:58;;;;;;;11.82;10.00;;;17.30;86.50;;;;;;5007853;28;20129;-87
2021/07/09 04:05:23;;;;;;;12.80;10.48;;;17.20;86.20;;;;;;5014122;28;20413;-87
2021/07/09 04:07:49;;;;;;;12.77;10.30;;;17.20;85.90;;;;;;5014538;28;20050;-87
2021/07/09 04:10:16;;;;;;;11.70;10.00;;;17.20;86.10;;;;;;5014219;28;20137;-86
2021/07/09 04:12:42;;;;;;;12.60;10.13;;;17.20;86.20;;;;;;5014133;28;20104;-87
2021/07/09 04:15:09;;;;;;;13.18;10.43;;;17.20;86.40;;;;;;5015007;28;20073;-87
2021/07/09 04:17:35;;;;;;;11.13;9.55;;;17.10;86.60;;;;;;5014319;28;20414;-87
2021/07/09 04:20:01;;;;;;;11.40;9.55;;;17.10;86.30;;;;;;5013927;28;20054;-87
2021/07/09 04:22:27;;;;;;;12.63;10.40;;;17.10;86.40;;;;;;5013878;28;20041;-87
2021/07/09 04:24:52;;;;;;;12.52;10.10;;;17.10;86.60;;;;;;5013763;28;20593;-87
2021/07/09 04:27:18;;;;;;;11.73;10.40;;;17.10;87.00;;;;;;5013617;28;20046;-87
2021/07/09 04:29:44;;;;;;;12.18;10.10;;;17.10;87.30;;;;;;5014607;28;20050;-87
2021/07/09 04:32:09;;;;;;;12.30;10.32;;;17.00;87.20;;;;;;5014205;28;20069;-86
2021/07/09 04:34:35;;;;;;;11.77;10.40;;;17.10;87.30;;;;;;5013680;28;20088;-87
2021/07/09 04:37:02;;;;;;;12.23;10.57;;;17.00;87.20;;;;;;5013989;28;20045;-87
2021/07/09 04:39:28;;;;;;;11.93;10.23;;;17.00;87.40;;;;;;5014413;28;20049;-87
2021/07/09 04:41:54;;;;;;;14.68;10.40;;;17.00;87.30;;;;;;5012884;28;20048;-87
2021/07/09 04:44:19;;;;;;;14.93;10.25;;;17.00;87.40;;;;;;5013568;28;20473;-87
2021/07/09 04:46:45;;;;;;;13.10;10.82;;;17.00;87.40;;;;;;5013632;28;20450;-87
2021/07/09 04:49:11;;;;;;;12.70;10.70;;;17.00;87.50;;;;;;5014317;28;20076;-87
2021/07/09 04:51:37;;;;;;;12.15;10.35;;;17.00;87.40;;;;;;5014135;28;20046;-87
2021/07/09 04:54:03;;;;;;;14.30;10.68;;;17.00;87.20;;;;;;5012840;28;20148;-86
2021/07/09 04:56:28;;;;;;;11.73;10.38;;;16.90;87.30;;;;;;5013721;28;20061;-87
2021/07/09 04:58:54;;;;;;;13.30;10.52;;;16.90;87.50;;;;;;5013675;28;20060;-86
2021/07/09 05:01:20;;;;;;;13.13;10.40;;;16.90;87.30;;;;;;5012098;28;20042;-86
2021/07/09 05:03:45;;;;;;;15.90;11.50;;;16.90;87.30;;;;;;5011238;28;20085;-86
2021/07/09 05:06:11;;;;;;;12.48;10.48;;;16.90;87.30;;;;;;5013077;28;20050;-86
2021/07/09 05:08:36;;;;;;;12.63;10.40;;;16.90;87.40;;;;;;5017092;28;20042;-86
2021/07/09 05:11:04;;;;;;;12.88;10.43;;;16.90;87.20;;;;;;5021976;28;20072;-86
2021/07/09 05:13:30;;;;;;;12.73;10.63;;;16.90;87.10;;;;;;5016505;28;20049;-86
2021/07/09 05:15:55;;;;;;;12.23;10.02;;;16.80;87.10;;;;;;5012452;28;20054;-86
2021/07/09 05:18:21;;;;;;;12.45;10.55;;;16.80;87.10;;;;;;5013508;28;20038;-86
2021/07/09 05:20:47;;;;;;;13.77;11.10;;;16.80;87.30;;;;;;5012439;28;20054;-86
2021/07/09 05:23:13;;;;;;;13.48;11.60;;;16.80;87.70;;;;;;5012051;28;20050;-85
2021/07/09 05:25:39;;;;;;;17.17;12.73;;;16.80;88.00;;;;;;5012989;28;20481;-87
2021/07/09 05:28:06;;;;;;;13.15;10.98;;;16.80;87.50;;;;;;5012845;28;20103;-86
2021/07/09 05:30:32;;;;;;;12.50;10.25;;;16.80;87.60;;;;;;5013006;28;20057;-86
2021/07/09 05:32:58;;;;;;;13.70;11.23;;;16.80;87.00;;;;;;5012958;28;20556;-86
2021/07/09 05:35:24;;;;;;;14.00;11.68;;;16.80;87.60;;;;;;5013124;28;20045;-86
2021/07/09 05:37:50;;;;;;;13.63;11.07;;;16.80;88.00;;;;;;5012811;28;20409;-91
2021/07/09 05:40:16;;;;;;;23.50;17.70;;;16.90;87.70;;;;;;5017331;28;20493;-85
2021/07/09 05:42:42;;;;;;;18.13;13.88;;;16.80;88.10;;;;;;5016016;28;20066;-89
2021/07/09 05:45:08;;;;;;;18.60;15.20;;;16.90;88.30;;;;;;5018335;28;20050;-89
2021/07/09 05:47:34;;;;;;;14.55;11.52;;;16.90;88.00;;;;;;5019808;28;20126;-91
2021/07/09 05:49:59;;;;;;;23.10;18.55;;;16.90;88.20;;;;;;5018542;28;20049;-90
2021/07/09 05:52:25;;;;;;;17.92;14.00;;;16.90;89.00;;;;;;5014578;28;20564;-89
2021/07/09 05:54:51;;;;;;;15.15;12.43;;;16.90;88.70;;;;;;5012665;28;20046;-86
2021/07/09 05:57:16;;;;;;;17.85;15.25;;;16.90;88.00;;;;;;5013743;28;20544;-88
2021/07/09 05:59:42;;;;;;;20.52;16.48;;;16.90;88.20;;;;;;5005022;28;20564;-88
2021/07/09 06:02:08;;;;;;;21.67;17.77;;;16.90;88.50;;;;;;5010677;28;20076;-88
2021/07/09 06:04:33;;;;;;;20.15;16.67;;;16.90;88.60;;;;;;5012717;28;20100;-91
2021/07/09 06:06:59;;;;;;;19.85;15.60;;;17.00;88.50;;;;;;5013703;28;20050;-88
2021/07/09 06:09:25;;;;;;;18.77;15.50;;;17.00;88.40;;;;;;5017771;28;20060;-87
2021/07/09 06:11:50;;;;;;;15.57;12.93;;;17.00;88.30;;;;;;5010903;28;20050;-87
2021/07/09 06:14:16;;;;;;;16.13;12.70;;;17.00;88.00;;;;;;5011125;28;20133;-88
2021/07/09 06:16:42;;;;;;;15.68;13.23;;;17.00;87.50;;;;;;5012960;28;20057;-88
2021/07/09 06:19:09;;;;;;;16.40;13.10;;;17.00;87.10;;;;;;5011536;28;20408;-87
2021/07/09 06:21:34;;;;;;;20.48;14.63;;;17.00;88.00;;;;;;5013014;28;20077;-87
2021/07/09 06:24:01;;;;;;;18.90;14.93;;;17.10;87.80;;;;;;5009066;28;20128;-88
2021/07/09 06:26:26;;;;;;;18.88;15.77;;;17.10;88.30;;;;;;5008372;28;20173;-87
2021/07/09 06:28:52;;;;;;;19.30;15.27;;;17.10;88.50;;;;;;5012848;28;20050;-87
2021/07/09 06:31:18;;;;;;;22.95;16.48;;;17.20;88.80;;;;;;5015165;28;20160;-88
2021/07/09 06:33:44;;;;;;;17.00;13.00;;;17.20;89.30;;;;;;5017720;28;20057;-87
2021/07/09 06:36:09;;;;;;;19.25;14.75;;;17.30;88.70;;;;;;5016959;28;20413;-87
2021/07/09 06:38:35;;;;;;;15.68;13.13;;;17.40;88.60;;;;;;5016204;28;20053;-88
2021/07/09 06:41:01;;;;;;;17.15;13.85;;;17.40;88.30;;;;;;5011920;28;20128;-88
2021/07/09 06:43:26;;;;;;;21.90;14.38;;;17.50;88.50;;;;;;5016139;28;20493;-90
2021/07/09 06:45:52;;;;;;;19.08;14.68;;;17.60;88.70;;;;;;5016399;28;20141;-87
2021/07/09 06:48:19;;;;;;;16.75;13.77;;;17.70;88.60;;;;;;5015612;28;20045;-86
2021/07/09 06:50:44;;;;;;;18.85;14.77;;;17.70;88.50;;;;;;5022103;28;20057;-87
2021/07/09 06:53:10;;;;;;;19.25;13.85;;;17.80;88.80;;;;;;5035750;28;20478;-88
2021/07/09 06:55:36;;;;;;;19.52;14.90;;;17.90;88.20;;;;;;5035736;28;20393;-87
2021/07/09 06:58:02;;;;;;;14.65;12.20;;;18.00;88.20;;;;;;5022661;28;20046;-87
2021/07/09 07:00:28;;;;;;;16.02;12.77;;;18.10;88.20;;;;;;5014958;28;20049;-87
2021/07/09 07:02:54;;;;;;;14.52;11.82;;;18.10;87.80;;;;;;5015365;28;20061;-87
2021/07/09 07:05:20;;;;;;;15.68;11.88;;;18.20;87.70;;;;;;5015362;28;20101;-87
2021/07/09 07:07:45;;;;;;;15.18;12.30;;;18.30;87.60;;;;;;5018942;28;20045;-88
2021/07/09 07:10:12;;;;;;;14.93;12.43;;;18.30;87.70;;;;;;5016461;28;20045;-87
2021/07/09 07:12:38;;;;;;;15.55;12.15;;;18.40;87.60;;;;;;5015563;28;20056;-85
2021/07/09 07:15:06;;;;;;;17.55;13.52;;;18.40;87.50;;;;;;5015377;28;20050;-89
2021/07/09 07:17:32;;;;;;;15.68;12.70;;;18.60;88.00;;;;;;5014217;28;20513;-87
2021/07/09 07:19:57;;;;;;;15.98;11.30;;;18.60;87.50;;;;;;5013705;28;20050;-86
2021/07/09 07:22:24;;;;;;;13.98;10.88;;;18.60;87.00;;;;;;5012763;28;20379;-87
2021/07/09 07:24:51;;;;;;;14.80;10.98;;;18.70;86.70;;;;;;5015309;28;20065;-87
2021/07/09 07:27:23;;;;;;;16.88;11.13;;;18.80;86.90;;;;;;5015523;28;20092;-87
2021/07/09 07:29:49;;;;;;;14.50;11.00;;;18.80;86.70;;;;;;5016491;28;20045;-88
2021/07/09 07:32:16;;;;;;;16.05;11.35;;;18.90;86.50;;;;;;5015994;28;20053;-89
2021/07/09 07:34:42;;;;;;;14.65;10.20;;;19.00;86.30;;;;;;5015348;28;20099;-87
2021/07/09 07:37:08;;;;;;;12.57;10.60;;;19.00;86.10;;;;;;5014311;28;20077;-87
2021/07/09 07:39:35;;;;;;;14.07;9.60;;;19.10;86.00;;;;;;5015134;28;20532;-87
2021/07/09 07:42:01;;;;;;;13.23;9.80;;;19.20;86.20;;;;;;5014161;28;20402;-88
2021/07/09 07:44:27;;;;;;;15.23;9.88;;;19.20;85.70;;;;;;5017002;28;20037;-88
2021/07/09 07:46:56;;;;;;;15.98;11.43;;;19.30;85.50;;;;;;5014859;28;20395;-89
2021/07/09 07:49:22;;;;;;;16.25;10.50;;;19.40;85.50;;;;;;5015393;28;20061;-90
2021/07/09 07:51:53;;;;;;;11.30;9.80;;;19.40;85.30;;;;;;5010005;28;20060;-90
2021/07/09 07:54:19;;;;;;;13.43;9.43;;;19.50;85.30;;;;;;5035662;28;20057;-91
2021/07/09 07:56:46;;;;;;;12.60;9.30;;;19.50;85.10;;;;;;5026434;28;20050;-91
2021/07/09 07:59:12;;;;;;;11.38;8.95;;;19.60;85.10;;;;;;5015658;28;20466;-93
2021/07/09 08:01:38;;;;;;;11.88;8.88;;;19.70;85.20;;;;;;5013810;28;20053;-91
2021/07/09 08:04:05;;;;;;;13.20;8.50;;;19.80;85.30;;;;;;5013775;28;20049;-92
2021/07/09 08:06:31;;;;;;;11.38;8.50;;;19.80;84.30;;;;;;5015794;28;20072;-94
2021/07/09 08:08:56;;;;;;;11.13;9.10;;;19.80;84.50;;;;;;5013573;28;20088;-91
2021/07/09 08:11:23;;;;;;;13.95;10.18;;;19.90;84.20;;;;;;5015568;28;20050;-91
2021/07/09 08:13:49;;;;;;;13.77;9.77;;;20.00;84.00;;;;;;5025338;28;20124;-93
2021/07/09 08:16:15;;;;;;;11.82;9.43;;;20.00;83.90;;;;;;5012841;28;20050;-91
2021/07/09 08:18:44;;;;;;;15.13;9.43;;;20.10;84.30;;;;;;5003340;28;20060;-91
2021/07/09 08:21:10;;;;;;;13.88;9.82;;;20.10;84.60;;;;;;5002398;28;20065;-90
2021/07/09 08:23:37;;;;;;;14.13;11.00;;;20.20;84.40;;;;;;5014932;28;20042;-90
2021/07/09 08:26:03;;;;;;;15.27;9.73;;;20.30;83.50;;;;;;5014285;28;20564;-90
2021/07/09 08:28:29;;;;;;;11.23;7.63;;;20.40;83.50;;;;;;5012465;28;20042;-88
2021/07/09 08:30:55;;;;;;;11.15;7.88;;;20.40;82.80;;;;;;5013141;28;20136;-90
2021/07/09 08:33:21;;;;;;;10.73;7.70;;;20.50;83.00;;;;;;5014595;28;20045;-90
2021/07/09 08:35:47;;;;;;;11.43;8.15;;;20.50;82.80;;;;;;5014219;28;20103;-89
2021/07/09 08:38:13;;;;;;;10.93;7.97;;;20.70;83.20;;;;;;5014189;28;20054;-93
2021/07/09 08:40:38;;;;;;;11.00;7.57;;;20.70;82.30;;;;;;5013925;28;20054;-89
2021/07/09 08:43:05;;;;;;;9.95;7.55;;;20.80;82.50;;;;;;5014285;28;20104;-89
2021/07/09 08:45:31;;;;;;;10.00;7.78;;;20.90;82.90;;;;;;5010381;28;20042;-89
2021/07/09 08:47:57;;;;;;;9.00;7.35;;;20.90;83.10;;;;;;5014707;28;20053;-89
2021/07/09 08:50:23;;;;;;;9.32;7.78;;;21.00;84.10;;;;;;5019591;28;20053;-89
2021/07/09 08:52:52;;;;;;;11.02;8.02;;;21.10;83.20;;;;;;5026585;28;20100;-91
2021/07/09 08:55:18;;;;;;;13.23;8.73;;;21.20;81.30;;;;;;5029903;28;20073;-89
2021/07/09 08:57:45;;;;;;;12.98;8.10;;;21.30;79.90;;;;;;5021219;28;20046;-90
2021/07/09 09:00:26;;;;;;;11.48;7.57;;;21.30;78.00;;;;;;5017236;28;20054;-91
2021/07/09 09:02:52;;;;;;;10.95;7.30;;;21.30;79.70;;;;;;5017053;28;20056;-89
2021/07/09 09:05:25;;;;;;;8.75;5.97;;;21.30;79.80;;;;;;5025252;28;20064;-93
2021/07/09 09:07:59;;;;;;;9.02;6.82;;;21.40;78.80;;;;;;5027171;28;20038;-89
2021/07/09 09:10:52;;;;;;;8.85;6.75;;;21.50;79.90;;;;;;5021521;28;20046;-90
2021/07/09 09:13:21;;;;;;;9.50;7.18;;;21.60;80.90;;;;;;5019167;28;20512;-90
2021/07/09 09:16:12;;;;;;;10.15;6.60;;;21.70;81.50;;;;;;5019804;28;20060;-88
2021/07/09 09:18:40;;;;;;;8.18;6.28;;;21.80;81.50;;;;;;5017796;28;20107;-86
2021/07/09 09:21:12;;;;;;;8.70;6.05;;;21.90;81.90;;;;;;5018955;28;20041;-86
2021/07/09 09:23:48;;;;;;;8.18;5.57;;;22.00;82.30;;;;;;5017032;28;20133;-86
2021/07/09 09:26:14;;;;;;;8.52;5.68;;;22.00;79.50;;;;;;5000225;28;20061;-88
2021/07/09 09:28:40;;;;;;;7.82;5.63;;;22.10;78.80;;;;;;5012541;28;20543;-85
2021/07/09 09:31:08;;;;;;;11.45;6.28;;;22.20;76.60;;;;;;5012794;28;20053;-87
2021/07/09 09:33:36;;;;;;;8.88;6.20;;;22.20;76.00;;;;;;5012026;28;20042;-85
2021/07/09 09:36:09;;;;;;;8.35;6.18;;;22.30;77.30;;;;;;5010496;28;20064;-86
2021/07/09 09:38:35;;;;;;;7.90;5.82;;;22.30;74.40;;;;;;5011493;28;20049;-85
2021/07/09 09:41:01;;;;;;;7.93;5.65;;;22.30;76.90;;;;;;5011021;28;20058;-86
2021/07/09 09:43:30;;;;;;;7.32;5.57;;;22.30;76.20;;;;;;5011504;28;20042;-83
2021/07/09 09:45:59;;;;;;;9.90;5.95;;;22.40;78.60;;;;;;5028229;28;21251;-87
2021/07/09 09:48:37;;;;;;;11.00;5.82;;;22.50;80.00;;;;;;5009356;28;20069;-86
2021/07/09 09:51:27;;;;;;;7.57;5.53;;;22.50;78.30;;;;;;5011913;28;20054;-92
2021/07/09 09:53:55;;;;;;;6.97;5.30;;;22.60;79.00;;;;;;5014826;28;20132;-90
2021/07/09 09:56:43;;;;;;;8.07;5.18;;;22.70;78.00;;;;;;5019802;28;20042;-90
2021/07/09 09:59:16;;;;;;;9.10;5.63;;;22.80;76.90;;;;;;5013746;28;20100;-90
2021/07/09 10:01:53;;;;;;;7.70;5.10;;;22.90;74.90;;;;;;4998571;28;20046;-87
2021/07/09 10:04:20;;;;;;;8.43;5.55;;;23.00;76.00;;;;;;5016817;28;20076;-87
2021/07/09 10:06:46;;;;;;;7.30;5.03;;;23.10;77.20;;;;;;5014640;28;20394;-87
2021/07/09 10:09:14;;;;;;;8.68;5.22;;;23.20;78.20;;;;;;5015318;28;20046;-88
2021/07/09 10:11:41;;;;;;;7.55;5.00;;;23.30;76.50;;;;;;5016030;28;20054;-91
2021/07/09 10:14:15;;;;;;;9.63;5.40;;;23.30;76.70;;;;;;5018314;28;20113;-92
2021/07/09 10:16:43;;;;;;;8.38;5.47;;;23.40;75.50;;;;;;5018043;28;20100;-80
2021/07/09 10:19:13;;;;;;;8.27;5.22;;;23.40;74.90;;;;;;5016084;28;20072;-80
2021/07/09 10:21:41;;;;;;;6.60;4.50;;;23.40;72.00;;;;;;5016666;28;20563;-80
2021/07/09 10:24:08;;;;;;;7.35;4.65;;;23.30;71.90;;;;;;5017108;28;20141;-80
2021/07/09 10:26:41;;;;;;;6.05;4.47;;;23.20;73.90;;;;;;5016843;28;20050;-79
2021/07/09 10:29:26;;;;;;;7.53;4.63;;;23.30;75.90;;;;;;5017875;28;20050;-80
2021/07/09 10:31:53;;;;;;;7.55;4.85;;;23.30;73.90;;;;;;5016572;28;20084;-80
2021/07/09 10:34:28;;;;;;;8.45;5.00;;;23.40;75.80;;;;;;5017394;28;20041;-79
2021/07/09 10:37:01;;;;;;;7.20;4.30;;;23.40;76.90;;;;;;5016560;28;20103;-79
2021/07/09 10:39:31;;;;;;;6.15;3.65;;;23.50;76.50;;;;;;5015711;28;20050;-80
2021/07/09 10:42:30;;;;;;;8.95;4.80;;;23.60;73.60;;;;;;5017316;28;20482;-83
2021/07/09 10:45:10;;;;;;;8.63;4.78;;;23.60;75.70;;;;;;5018297;28;20054;-80
2021/07/09 10:47:45;;;;;;;7.70;4.40;;;23.60;76.70;;;;;;5035638;28;20504;-79
2021/07/09 10:50:16;;;;;;;6.85;4.40;;;23.70;78.10;;;;;;5036688;28;20079;-93
2021/07/09 10:52:46;;;;;;;8.52;4.20;;;23.80;75.00;;;;;;5022838;28;20069;-89
2021/07/09 10:55:27;;;;;;;10.90;5.00;;;23.80;74.30;;;;;;5017726;28;20200;-91
2021/07/09 10:58:16;;;;;;;7.47;4.97;;;23.80;70.80;;;;;;5017495;28;20086;-93
2021/07/09 11:00:48;;;;;;;8.55;4.47;;;23.80;70.10;;;;;;5017261;28;20486;-91
2021/07/09 11:03:43;;;;;;;6.78;4.22;;;23.80;69.30;;;;;;5017726;28;20145;-92
2021/07/09 11:06:13;;;;;;;7.75;4.65;;;23.80;68.10;;;;;;5016478;28;20056;-91
2021/07/09 11:08:53;;;;;;;8.45;5.32;;;23.80;71.60;;;;;;5016334;28;20073;-86
2021/07/09 11:11:38;;;;;;;6.60;4.85;;;23.90;68.70;;;;;;5016604;28;20490;-91
2021/07/09 11:14:12;;;;;;;7.00;4.72;;;23.90;70.00;;;;;;5016809;28;20140;-91
2021/07/09 11:16:43;;;;;;;6.00;4.60;;;24.00;71.20;;;;;;5016847;28;20058;-91
2021/07/09 11:19:12;;;;;;;10.52;4.95;;;24.00;67.50;;;;;;5016510;28;20050;-94
2021/07/09 11:21:38;;;;;;;6.72;4.53;;;24.10;69.20;;;;;;5016850;28;20054;-87
2021/07/09 11:24:26;;;;;;;7.35;4.78;;;24.20;70.90;;;;;;5016365;28;20054;-91
2021/07/09 11:26:58;;;;;;;10.30;4.90;;;24.30;67.30;;;;;;5016265;28;20409;-91
2021/07/09 11:29:31;;;;;;;6.75;4.22;;;24.30;66.50;;;;;;5015488;28;20058;-90
2021/07/09 11:32:02;;;;;;;8.98;4.60;;;24.30;66.10;;;;;;5016404;28;20046;-90
2021/07/09 11:34:34;;;;;;;11.00;4.72;;;24.30;67.80;;;;;;5016460;28;20073;-89
2021/07/09 11:37:03;;;;;;;10.73;4.70;;;24.40;68.60;;;;;;5031234;28;20053;-94
2021/07/09 11:39:31;;;;;;;10.07;5.15;;;24.50;69.90;;;;;;5036121;28;20516;-91
2021/07/09 11:42:07;;;;;;;7.60;4.72;;;24.60;66.40;;;;;;5033882;28;20053;-92
2021/07/09 11:44:51;;;;;;;8.68;5.32;;;24.60;64.90;;;;;;4996559;28;20086;-91
2021/07/09 11:47:30;;;;;;;9.27;4.40;;;24.60;65.70;;;;;;4996661;28;20078;-91
2021/07/09 11:50:00;;;;;;;8.52;5.00;;;24.70;64.60;;;;;;4995800;28;20607;-92
2021/07/09 11:52:27;;;;;;;7.07;4.65;;;24.70;63.60;;;;;;4997964;28;20061;-88
2021/07/09 11:54:55;;;;;;;7.55;4.75;;;24.70;62.90;;;;;;5001270;28;20397;-92
2021/07/09 11:57:23;;;;;;;8.55;4.00;;;24.80;65.20;;;;;;5005287;28;20104;-91
2021/07/09 11:59:51;;;;;;;7.55;4.28;;;24.80;65.40;;;;;;5016144;28;20073;-92
2021/07/09 12:02:18;;;;;;;5.75;3.83;;;24.90;63.80;;;;;;5016311;28;20092;-93
2021/07/09 12:04:46;;;;;;;6.50;3.97;;;24.80;63.60;;;;;;5015587;28;20086;-92
2021/07/09 12:07:27;;;;;;;6.20;3.95;;;24.90;65.50;;;;;;5016260;28;20046;-95
2021/07/09 12:10:07;;;;;;;5.82;3.60;;;24.90;65.50;;;;;;5016646;28;20057;-93
2021/07/09 12:12:39;;;;;;;8.27;3.30;;;25.00;65.60;;;;;;5017292;28;20058;-93
2021/07/09 12:15:10;;;;;;;6.88;3.70;;;25.00;63.00;;;;;;5016572;28;20129;-93
2021/07/09 12:17:40;;;;;;;6.57;3.80;;;25.00;64.00;;;;;;5016527;28;20053;-92
2021/07/09 12:20:12;;;;;;;8.65;3.70;;;25.00;64.60;;;;;;5016358;28;20119;-93
2021/07/09 12:22:48;;;;;;;7.33;4.03;;;25.00;62.80;;;;;;5015954;28;20077;-91
2021/07/09 12:25:16;;;;;;;8.23;3.88;;;24.80;63.10;;;;;;5015155;28;20050;-92
2021/07/09 12:27:43;;;;;;;6.32;4.00;;;24.70;64.50;;;;;;5016168;28;20049;-92
2021/07/09 12:30:18;;;;;;;6.88;4.00;;;24.70;63.60;;;;;;5015960;28;20049;-93
2021/07/09 12:32:58;;;;;;;6.18;3.70;;;24.60;62.60;;;;;;5014565;28;20050;-92
2021/07/09 12:35:26;;;;;;;8.45;3.85;;;24.50;63.30;;;;;;5015749;28;20049;-94
2021/07/09 12:37:59;;;;;;;7.18;4.50;;;24.40;64.50;;;;;;5015443;28;20050;-92
2021/07/09 12:40:59;;;;;;;7.30;4.45;;;24.40;64.80;;;;;;5015964;28;20482;-91